AirNav   Everest Fuels
 
 803 users online  

4CO6 Lutheran Medical Center Heliport
Wheat Ridge, Colorado, USA

GOING TO WHEAT RIDGE?


FAA INFORMATION EFFECTIVE 02 JANUARY 2020

Location

FAA Identifier: 4CO6
Lat/Long: 39-45-57.2600N 105-05-33.5500W
39-45.954333N 105-05.559167W
39.7659056,-105.0926528
(estimated)
Elevation: 5500 ft. / 1676 m (estimated)
Variation: 12E (1985)
Time zone: UTC -7 (UTC -6 during Daylight Saving Time)
Zip code: 80033

Heliport Operations

Heliport use: Private use, MEDICAL USE.
Activation date: 04/1970
Control tower: no
ARTCC: DENVER CENTER
FSS: DENVER FLIGHT SERVICE STATION
Attendance: UNATNDD
Wind indicator: lighted
Segmented circle: no
Lights: FOR PERIMETER LGTS CALL 303-425-2089.

Heliport Communications

WX AWOS-3 at BJC (9 nm N): PHONE 720-887-8067
WX AWOS-3 at EIK (15 nm N): 133.825 (303-604-4339)
WX ASOS at APA (16 nm SE): PHONE 720-873-2799
WX AWOS-3 at BDU (18 nm N): 118.825 (303-541-9540)

Nearby radio navigation aids

VOR radial/distance  VOR name  Freq  Var
BJCr155/9.1JEFFCO VOR/DME115.4011E
DENr254/20.1DENVER VOR/DME117.9008E
FQFr271/22.2FALCON VORTAC116.3011E
DVVr242/22.9MILE HIGH VORTAC114.7008E

Heliport Services

Airframe service: NONE
Powerplant service: NONE

Runway Information

Helipad H1

Dimensions: 60 x 60 ft. / 18 x 18 m
Surface: concrete
Runway edge lights: PERI
Latitude: 39-45.954333N
Longitude: 105-05.559167W
Elevation: 5500.0 ft.
Traffic pattern: leftleft

Heliport Ownership and Management from official FAA records

Ownership: Privately-owned
Owner: LUTHERAN MEDICAL CENTER
8300 W. 38TH AVE.
WHEAT RIDGE, CO 80033
Phone (303) 403-3790
Manager: DARRELL SMITH
8300 W 38TH AVE
WHEAT RIDGE, CO 80033
Phone 303-467-8732
OR 303-425-2106

Additional Remarks

A52-H1 LGTD 20' WIND SOCK 85' WSW TOUCHDOWN AREA; BLDG WEST.
FOR CD CTC DENVER APCH AT 303-342-1916.

Instrument Procedures

There are no published instrument procedures at 4CO6.

Some nearby airports with instrument procedures:

KBJC - Rocky Mountain Metropolitan Airport (9 nm N)
KEIK - Erie Municipal Airport (15 nm N)
KBKF - Buckley Air Force Base (16 nm E)
KAPA - Centennial Airport (16 nm SE)
KDEN - Denver International Airport (20 nm E)
 
Loc | Ops | Rwys | IFR | FBO | Links
Com | Nav | Svcs | Stats | Notes

AirBoss

 
Area around 4CO6 (Lutheran Medical Center Heliport)
 
Road maps at: MapQuest Bing Google
 
Aerial photo
No photo
 
Sectional chart

 
Airport distance calculator
Flying to Lutheran Medical Center Heliport? Find the distance to fly.

From to 4CO6

Sunrise and sunset
Times for 22-Jan-2020
 Local
(UTC-7)
 Zulu
(UTC)
Morning civil twilight06:4813:48
Sunrise07:1714:17
Sunset17:0700:07
Evening civil twilight17:3600:36

Current date and time
Zulu (UTC)  22-Jan-2020 11:45:24
Local (UTC-7)  22-Jan-2020 04:45:24
 
METAR
KBJC 
9nm N 
221130Z AUTO 26010KT 10SM CLR 06/M07 A2982 RMK AO2
KEIK 
15nm N 
221142Z AUTO 26009KT 10SM CLR 06/M07 A2985 RMK AO2 T00621074
KBKF 
16nm E 
221058Z 21007KT 10SM SCT100 BKN220 00/M07 A2982 RMK AO2A SLP087 T00001066
KAPA 
16nm SE 
221053Z 22004KT 10SM FEW100 SCT120 01/M07 A2982 RMK AO2 SLP096 T00061067
K1V5 
18nm N 
AWOS 118.825 303-541-9540
No observation available
KBDU 
18nm N 
221130Z AUTO 29005KT 10SM CLR 06/M07 A2980 RMK AO2
TAF
KBJC 
9nm N 
220527Z 2206/2306 VRB04KT P6SM BKN110 BKN220 FM221600 30012KT P6SM SCT120 BKN200 FM222000 32014G24KT P6SM FEW090 SCT220 FM230200 30007KT P6SM FEW110 SCT220
KBKF 
16nm E 
220109Z 2201/2307 02009KT 9999 FEW080 BKN120 BKN200 QNH2980INS BECMG 2210/2211 VRB06KT 9999 SCT100 QNH2978INS BECMG 2217/2218 29012G20KT 9999 FEW100 QNH2986INS BECMG 2223/2224 20009KT 9999 SKC QNH2991INS TX12/2221Z TN00/2212Z
KAPA 
16nm SE 
220527Z 2206/2306 25004KT P6SM BKN120 BKN220 FM221300 VRB04KT P6SM SCT120 BKN220 FM221700 30012KT P6SM FEW140 BKN200 FM222000 35014G24KT P6SM FEW080 FEW220 FM230100 VRB06KT P6SM FEW090 FEW220 FM230500 20007KT P6SM FEW220
NOTAMs
Click for the latest NOTAMs
NOTAMs are issued by the DoD/FAA and will open in a separate window not controlled by AirNav.

 

 
 

Would you like to see your business listed on this page?

 If your business provides an interesting product or service to pilots, flight crews, aircraft, or users of the Lutheran Medical Center Heliport, you should consider listing it here.  To start the listing process, click on the button below
 
Add a business
 

Other Pages about Lutheran Medical Center Heliport

Update a link
 
Copyright © AirNav, LLC. All rights reserved. Privacy Policy  Contact